sensor_id;sensor_type;location;lat;lon;timestamp;pressure;altitude;pressure_sealevel;temperature;humidity
6136;BME280;24008;42.664;23.372;2023-07-29T00:00:08;94611.00;;;18.03;65.40
6136;BME280;24008;42.664;23.372;2023-07-29T00:02:36;94639.19;;;18.25;65.74
6136;BME280;24008;42.664;23.372;2023-07-29T00:05:03;94597.81;;;17.91;65.98
6136;BME280;24008;42.664;23.372;2023-07-29T00:07:30;94640.59;;;18.21;66.41
6136;BME280;24008;42.664;23.372;2023-07-29T00:09:58;94646.97;;;18.25;66.55
6136;BME280;24008;42.664;23.372;2023-07-29T00:12:24;94621.59;;;18.08;66.05
6136;BME280;24008;42.664;23.372;2023-07-29T00:14:51;94646.94;;;18.19;66.76
6136;BME280;24008;42.664;23.372;2023-07-29T00:17:18;94552.38;;;17.54;66.79
6136;BME280;24008;42.664;23.372;2023-07-29T00:19:46;94660.81;;;18.11;67.34
6136;BME280;24008;42.664;23.372;2023-07-29T00:22:12;94433.03;;;16.67;67.85
6136;BME280;24008;42.664;23.372;2023-07-29T00:24:39;94623.22;;;17.87;69.04
6136;BME280;24008;42.664;23.372;2023-07-29T00:27:08;94550.88;;;17.38;68.77
6136;BME280;24008;42.664;23.372;2023-07-29T00:29:35;94643.22;;;18.00;68.88
6136;BME280;24008;42.664;23.372;2023-07-29T00:32:01;94616.22;;;17.81;68.84
6136;BME280;24008;42.664;23.372;2023-07-29T00:34:28;94554.72;;;17.49;69.20
6136;BME280;24008;42.664;23.372;2023-07-29T00:36:56;94640.84;;;17.98;68.89
6136;BME280;24008;42.664;23.372;2023-07-29T00:39:23;94642.00;;;17.96;69.38
6136;BME280;24008;42.664;23.372;2023-07-29T00:41:49;94641.56;;;17.92;69.52
6136;BME280;24008;42.664;23.372;2023-07-29T00:44:18;94633.56;;;17.87;69.99
6136;BME280;24008;42.664;23.372;2023-07-29T00:46:45;94616.31;;;17.67;70.05
6136;BME280;24008;42.664;23.372;2023-07-29T00:49:12;94561.75;;;17.34;69.98
6136;BME280;24008;42.664;23.372;2023-07-29T00:51:39;94630.91;;;17.74;70.67
6136;BME280;24008;42.664;23.372;2023-07-29T00:54:06;94630.41;;;17.64;71.37
6136;BME280;24008;42.664;23.372;2023-07-29T00:56:33;94426.88;;;16.25;71.87
6136;BME280;24008;42.664;23.372;2023-07-29T00:59:01;94606.09;;;17.37;72.17
6136;BME280;24008;42.664;23.372;2023-07-29T01:01:29;94631.19;;;17.43;72.94
6136;BME280;24008;42.664;23.372;2023-07-29T01:03:56;94614.28;;;17.19;73.12
6136;BME280;24008;42.664;23.372;2023-07-29T01:06:28;94592.84;;;17.04;73.41
6136;BME280;24008;42.664;23.372;2023-07-29T01:08:59;94631.00;;;17.23;73.69
6136;BME280;24008;42.664;23.372;2023-07-29T01:11:35;94623.44;;;17.22;73.79
6136;BME280;24008;42.664;23.372;2023-07-29T01:14:11;94519.50;;;16.41;73.86
6136;BME280;24008;42.664;23.372;2023-07-29T01:16:48;94508.63;;;16.46;74.13
6136;BME280;24008;42.664;23.372;2023-07-29T01:19:26;94626.56;;;17.17;73.90
6136;BME280;24008;42.664;23.372;2023-07-29T01:22:02;94572.53;;;16.80;73.89
6136;BME280;24008;42.664;23.372;2023-07-29T01:24:30;94509.56;;;16.38;74.27
6136;BME280;24008;42.664;23.372;2023-07-29T01:26:57;94626.31;;;17.12;74.13
6136;BME280;24008;42.664;23.372;2023-07-29T01:29:24;94677.34;;;17.10;73.43
6136;BME280;24008;42.664;23.372;2023-07-29T01:31:54;94627.94;;;17.13;72.34
6136;BME280;24008;42.664;23.372;2023-07-29T01:34:26;94630.88;;;17.10;73.84
6136;BME280;24008;42.664;23.372;2023-07-29T01:36:56;94586.19;;;16.74;74.40
6136;BME280;24008;42.664;23.372;2023-07-29T01:39:25;94575.38;;;16.64;74.74
6136;BME280;24008;42.664;23.372;2023-07-29T01:41:56;94625.91;;;16.94;74.76
6136;BME280;24008;42.664;23.372;2023-07-29T01:44:23;94619.97;;;16.93;74.53
6136;BME280;24008;42.664;23.372;2023-07-29T01:46:50;94619.53;;;16.90;74.89
6136;BME280;24008;42.664;23.372;2023-07-29T01:49:17;94570.63;;;16.52;75.12
6136;BME280;24008;42.664;23.372;2023-07-29T01:51:43;94608.53;;;16.67;75.17
6136;BME280;24008;42.664;23.372;2023-07-29T01:54:10;94628.34;;;16.81;75.06
6136;BME280;24008;42.664;23.372;2023-07-29T01:56:37;94634.50;;;16.80;75.23
6136;BME280;24008;42.664;23.372;2023-07-29T01:59:05;94210.81;;;14.11;74.97
6136;BME280;24008;42.664;23.372;2023-07-29T02:01:32;94630.41;;;16.71;74.78
6136;BME280;24008;42.664;23.372;2023-07-29T02:03:59;94501.72;;;15.81;75.00
6136;BME280;24008;42.664;23.372;2023-07-29T02:06:25;94594.50;;;16.40;74.49
6136;BME280;24008;42.664;23.372;2023-07-29T02:08:53;94629.38;;;16.65;74.26
6136;BME280;24008;42.664;23.372;2023-07-29T02:11:20;94423.16;;;15.33;74.15
6136;BME280;24008;42.664;23.372;2023-07-29T02:13:52;94604.44;;;16.43;73.82
6136;BME280;24008;42.664;23.372;2023-07-29T02:16:21;94376.50;;;14.98;73.91
6136;BME280;24008;42.664;23.372;2023-07-29T02:18:49;94564.97;;;16.13;73.82
6136;BME280;24008;42.664;23.372;2023-07-29T02:21:16;94630.78;;;16.68;72.09
6136;BME280;24008;42.664;23.372;2023-07-29T02:23:42;94604.34;;;16.51;71.12
6136;BME280;24008;42.664;23.372;2023-07-29T02:26:09;94581.78;;;16.38;69.36
6136;BME280;24008;42.664;23.372;2023-07-29T02:28:36;94646.88;;;16.84;68.22
6136;BME280;24008;42.664;23.372;2023-07-29T02:31:11;94647.94;;;16.90;67.41
6136;BME280;24008;42.664;23.372;2023-07-29T02:33:40;94580.56;;;16.55;67.39
6136;BME280;24008;42.664;23.372;2023-07-29T02:36:07;94637.22;;;16.93;66.65
6136;BME280;24008;42.664;23.372;2023-07-29T02:38:34;94604.25;;;16.74;66.50
6136;BME280;24008;42.664;23.372;2023-07-29T02:41:00;94542.28;;;16.38;66.72
6136;BME280;24008;42.664;23.372;2023-07-29T02:43:27;94640.44;;;16.95;66.99
6136;BME280;24008;42.664;23.372;2023-07-29T02:45:54;94550.56;;;16.33;67.17
6136;BME280;24008;42.664;23.372;2023-07-29T02:48:21;94498.66;;;16.07;67.77
6136;BME280;24008;42.664;23.372;2023-07-29T02:50:49;94463.06;;;15.81;67.11
6136;BME280;24008;42.664;23.372;2023-07-29T02:53:16;94628.69;;;16.92;66.05
6136;BME280;24008;42.664;23.372;2023-07-29T02:55:43;94629.94;;;16.97;65.58
6136;BME280;24008;42.664;23.372;2023-07-29T02:58:10;94468.56;;;15.93;65.61
6136;BME280;24008;42.664;23.372;2023-07-29T03:00:36;94559.53;;;16.37;65.66
6136;BME280;24008;42.664;23.372;2023-07-29T03:03:04;94637.84;;;16.95;66.33
6136;BME280;24008;42.664;23.372;2023-07-29T03:05:30;94652.72;;;16.93;67.69
6136;BME280;24008;42.664;23.372;2023-07-29T03:07:59;94645.94;;;16.92;68.27
6136;BME280;24008;42.664;23.372;2023-07-29T03:10:26;94614.69;;;16.66;69.08
6136;BME280;24008;42.664;23.372;2023-07-29T03:12:54;94651.22;;;16.84;70.79
6136;BME280;24008;42.664;23.372;2023-07-29T03:15:23;94601.78;;;16.36;71.66
6136;BME280;24008;42.664;23.372;2023-07-29T03:17:50;94511.84;;;15.68;72.03
6136;BME280;24008;42.664;23.372;2023-07-29T03:20:17;94639.31;;;16.39;73.08
6136;BME280;24008;42.664;23.372;2023-07-29T03:22:44;94651.06;;;16.41;73.90
6136;BME280;24008;42.664;23.372;2023-07-29T03:25:13;94661.75;;;16.38;75.01
6136;BME280;24008;42.664;23.372;2023-07-29T03:27:40;94659.84;;;16.32;75.04
6136;BME280;24008;42.664;23.372;2023-07-29T03:30:07;94349.69;;;14.40;74.53
6136;BME280;24008;42.664;23.372;2023-07-29T03:32:34;94624.13;;;16.14;74.48
6136;BME280;24008;42.664;23.372;2023-07-29T03:35:01;94577.59;;;15.78;74.03
6136;BME280;24008;42.664;23.372;2023-07-29T03:37:28;94671.09;;;16.39;74.51
6136;BME280;24008;42.664;23.372;2023-07-29T03:39:54;94609.25;;;16.02;74.99
6136;BME280;24008;42.664;23.372;2023-07-29T03:42:23;94666.91;;;16.38;75.09
6136;BME280;24008;42.664;23.372;2023-07-29T03:44:49;94666.78;;;16.32;75.24
6136;BME280;24008;42.664;23.372;2023-07-29T03:47:16;94603.56;;;15.92;75.76
6136;BME280;24008;42.664;23.372;2023-07-29T03:49:43;94593.94;;;15.85;75.77
6136;BME280;24008;42.664;23.372;2023-07-29T03:52:10;94503.03;;;15.25;75.99
6136;BME280;24008;42.664;23.372;2023-07-29T03:54:36;94603.91;;;15.89;76.83
6136;BME280;24008;42.664;23.372;2023-07-29T03:57:04;94601.63;;;15.94;77.19
6136;BME280;24008;42.664;23.372;2023-07-29T03:59:32;94657.44;;;16.31;77.12
6136;BME280;24008;42.664;23.372;2023-07-29T04:01:59;94542.41;;;15.48;77.54
6136;BME280;24008;42.664;23.372;2023-07-29T04:04:25;94660.56;;;16.26;77.40
6136;BME280;24008;42.664;23.372;2023-07-29T04:06:52;94604.34;;;15.77;77.53
6136;BME280;24008;42.664;23.372;2023-07-29T04:09:19;94667.34;;;16.27;78.37
6136;BME280;24008;42.664;23.372;2023-07-29T04:11:46;94617.41;;;15.91;78.57
6136;BME280;24008;42.664;23.372;2023-07-29T04:14:13;94450.25;;;14.91;78.71
6136;BME280;24008;42.664;23.372;2023-07-29T04:16:42;94672.75;;;16.32;78.53
6136;BME280;24008;42.664;23.372;2023-07-29T04:19:09;94672.06;;;16.38;78.72
6136;BME280;24008;42.664;23.372;2023-07-29T04:21:36;94678.09;;;16.45;73.54
6136;BME280;24008;42.664;23.372;2023-07-29T04:24:03;94619.22;;;16.19;72.32
6136;BME280;24008;42.664;23.372;2023-07-29T04:26:30;94532.44;;;15.82;71.10
6136;BME280;24008;42.664;23.372;2023-07-29T04:28:57;94462.31;;;15.43;70.02
6136;BME280;24008;42.664;23.372;2023-07-29T04:31:24;94607.97;;;16.56;69.71
6136;BME280;24008;42.664;23.372;2023-07-29T04:33:53;94669.00;;;17.08;69.56
6136;BME280;24008;42.664;23.372;2023-07-29T04:36:20;94664.75;;;17.22;69.17
6136;BME280;24008;42.664;23.372;2023-07-29T04:38:46;94666.88;;;17.33;68.73
6136;BME280;24008;42.664;23.372;2023-07-29T04:41:13;94501.19;;;16.36;68.22
6136;BME280;24008;42.664;23.372;2023-07-29T04:43:40;94672.56;;;17.64;68.52
6136;BME280;24008;42.664;23.372;2023-07-29T04:46:07;94637.56;;;18.52;67.00
6136;BME280;24008;42.664;23.372;2023-07-29T04:48:34;94611.22;;;20.03;60.89
6136;BME280;24008;42.664;23.372;2023-07-29T04:51:02;94669.50;;;21.81;54.94
6136;BME280;24008;42.664;23.372;2023-07-29T04:53:29;94489.78;;;21.82;50.68
6136;BME280;24008;42.664;23.372;2023-07-29T04:55:56;94670.19;;;24.07;47.97
6136;BME280;24008;42.664;23.372;2023-07-29T04:58:23;94593.69;;;24.30;45.41
6136;BME280;24008;42.664;23.372;2023-07-29T05:00:49;94698.84;;;25.47;43.68
6136;BME280;24008;42.664;23.372;2023-07-29T05:03:16;94582.09;;;25.46;42.34
6136;BME280;24008;42.664;23.372;2023-07-29T05:05:43;94682.66;;;26.40;40.93
6136;BME280;24008;42.664;23.372;2023-07-29T05:08:11;94689.75;;;26.62;41.05
6136;BME280;24008;42.664;23.372;2023-07-29T05:10:38;94691.84;;;26.98;39.87
6136;BME280;24008;42.664;23.372;2023-07-29T05:13:05;94694.44;;;27.42;38.62
6136;BME280;24008;42.664;23.372;2023-07-29T05:15:32;94696.19;;;27.31;39.58
6136;BME280;24008;42.664;23.372;2023-07-29T05:17:59;94695.75;;;27.39;40.57
6136;BME280;24008;42.664;23.372;2023-07-29T05:20:25;94692.88;;;27.89;37.96
6136;BME280;24008;42.664;23.372;2023-07-29T05:22:52;94591.16;;;27.26;37.77
6136;BME280;24008;42.664;23.372;2023-07-29T05:25:20;94696.00;;;27.86;38.67
6136;BME280;24008;42.664;23.372;2023-07-29T05:27:47;94597.97;;;27.00;40.57
6136;BME280;24008;42.664;23.372;2023-07-29T05:30:14;94655.91;;;27.20;40.63
6136;BME280;24008;42.664;23.372;2023-07-29T05:32:41;94598.28;;;27.31;40.01
6136;BME280;24008;42.664;23.372;2023-07-29T05:35:08;94538.25;;;26.42;40.41
6136;BME280;24008;42.664;23.372;2023-07-29T05:37:37;94661.13;;;27.15;40.38
6136;BME280;24008;42.664;23.372;2023-07-29T05:40:06;94680.75;;;27.83;39.34
6136;BME280;24008;42.664;23.372;2023-07-29T05:42:35;94675.88;;;27.70;39.02
6136;BME280;24008;42.664;23.372;2023-07-29T05:45:01;94710.06;;;28.02;39.26
6136;BME280;24008;42.664;23.372;2023-07-29T05:47:28;94717.22;;;28.76;37.50
6136;BME280;24008;42.664;23.372;2023-07-29T05:49:55;94508.53;;;27.98;36.83
6136;BME280;24008;42.664;23.372;2023-07-29T05:52:22;94597.13;;;28.07;37.72
6136;BME280;24008;42.664;23.372;2023-07-29T05:54:49;94715.59;;;29.69;35.83
6136;BME280;24008;42.664;23.372;2023-07-29T05:57:15;94631.25;;;29.64;35.42
6136;BME280;24008;42.664;23.372;2023-07-29T05:59:44;94714.59;;;30.11;35.71
6136;BME280;24008;42.664;23.372;2023-07-29T06:02:10;94715.81;;;29.57;37.04
6136;BME280;24008;42.664;23.372;2023-07-29T06:04:37;94715.44;;;29.33;37.33
6136;BME280;24008;42.664;23.372;2023-07-29T06:07:05;94651.25;;;29.45;36.51
6136;BME280;24008;42.664;23.372;2023-07-29T06:09:32;94710.94;;;30.62;34.44
6136;BME280;24008;42.664;23.372;2023-07-29T06:11:58;94663.72;;;30.35;35.45
6136;BME280;24008;42.664;23.372;2023-07-29T06:14:25;94676.59;;;30.83;34.19
6136;BME280;24008;42.664;23.372;2023-07-29T06:16:54;94590.19;;;30.14;34.48
6136;BME280;24008;42.664;23.372;2023-07-29T06:19:20;94712.00;;;30.31;34.83
6136;BME280;24008;42.664;23.372;2023-07-29T06:21:48;94555.34;;;29.35;36.18
6136;BME280;24008;42.664;23.372;2023-07-29T06:24:15;94696.41;;;30.19;35.55
6136;BME280;24008;42.664;23.372;2023-07-29T06:26:41;94698.72;;;31.02;34.56
6136;BME280;24008;42.664;23.372;2023-07-29T06:29:08;94657.03;;;30.94;33.73
6136;BME280;24008;42.664;23.372;2023-07-29T06:31:35;94661.53;;;31.52;32.73
6136;BME280;24008;42.664;23.372;2023-07-29T06:34:03;94694.19;;;32.16;32.70
6136;BME280;24008;42.664;23.372;2023-07-29T06:36:30;94522.56;;;30.63;32.72
6136;BME280;24008;42.664;23.372;2023-07-29T06:38:57;94693.31;;;31.92;31.67
6136;BME280;24008;42.664;23.372;2023-07-29T06:41:23;94691.28;;;32.23;31.51
6136;BME280;24008;42.664;23.372;2023-07-29T06:43:50;94668.69;;;32.35;31.28
6136;BME280;24008;42.664;23.372;2023-07-29T06:46:17;94640.97;;;32.28;30.53
6136;BME280;24008;42.664;23.372;2023-07-29T06:48:43;94677.72;;;32.58;30.09
6136;BME280;24008;42.664;23.372;2023-07-29T06:51:12;94678.38;;;32.98;29.96
6136;BME280;24008;42.664;23.372;2023-07-29T06:53:38;94647.59;;;33.07;30.09
6136;BME280;24008;42.664;23.372;2023-07-29T06:56:05;94680.94;;;33.08;30.58
6136;BME280;24008;42.664;23.372;2023-07-29T06:58:32;94686.81;;;33.05;30.72
6136;BME280;24008;42.664;23.372;2023-07-29T07:00:59;94682.19;;;32.34;31.49
6136;BME280;24008;42.664;23.372;2023-07-29T07:03:26;94574.31;;;31.58;31.19
6136;BME280;24008;42.664;23.372;2023-07-29T07:05:53;94682.28;;;32.24;32.72
6136;BME280;24008;42.664;23.372;2023-07-29T07:08:21;94676.81;;;32.05;32.05
6136;BME280;24008;42.664;23.372;2023-07-29T07:10:47;94682.41;;;32.37;30.96
6136;BME280;24008;42.664;23.372;2023-07-29T07:13:14;94688.56;;;32.28;31.71
6136;BME280;24008;42.664;23.372;2023-07-29T07:15:41;94598.19;;;31.42;32.37
6136;BME280;24008;42.664;23.372;2023-07-29T07:18:08;94678.88;;;32.18;30.97
6136;BME280;24008;42.664;23.372;2023-07-29T07:20:35;94687.56;;;32.24;31.14
6136;BME280;24008;42.664;23.372;2023-07-29T07:23:02;94641.28;;;32.50;30.18
6136;BME280;24008;42.664;23.372;2023-07-29T07:25:32;94678.31;;;33.50;29.87
6136;BME280;24008;42.664;23.372;2023-07-29T07:27:58;94692.22;;;33.61;29.18
6136;BME280;24008;42.664;23.372;2023-07-29T07:30:25;94682.25;;;33.53;29.62
6136;BME280;24008;42.664;23.372;2023-07-29T07:32:52;94640.16;;;33.89;29.36
6136;BME280;24008;42.664;23.372;2023-07-29T07:35:19;94674.53;;;34.13;29.51
6136;BME280;24008;42.664;23.372;2023-07-29T07:37:46;94672.78;;;34.22;28.79
6136;BME280;24008;42.664;23.372;2023-07-29T07:40:13;94692.66;;;34.57;28.04
6136;BME280;24008;42.664;23.372;2023-07-29T07:42:41;94652.84;;;34.24;28.41
6136;BME280;24008;42.664;23.372;2023-07-29T07:45:08;94672.34;;;34.80;27.11
6136;BME280;24008;42.664;23.372;2023-07-29T07:47:35;94640.31;;;34.76;28.15
6136;BME280;24008;42.664;23.372;2023-07-29T07:50:02;94678.31;;;34.58;26.99
6136;BME280;24008;42.664;23.372;2023-07-29T07:52:29;94690.00;;;34.57;26.95
6136;BME280;24008;42.664;23.372;2023-07-29T07:54:55;94676.09;;;34.14;27.87
6136;BME280;24008;42.664;23.372;2023-07-29T07:57:22;94623.75;;;33.87;28.24
6136;BME280;24008;42.664;23.372;2023-07-29T07:59:51;94672.34;;;34.33;27.51
6136;BME280;24008;42.664;23.372;2023-07-29T08:02:18;94679.69;;;34.69;27.05
6136;BME280;24008;42.664;23.372;2023-07-29T08:04:45;94580.69;;;34.09;26.50
6136;BME280;24008;42.664;23.372;2023-07-29T08:07:12;94680.75;;;34.41;27.29
6136;BME280;24008;42.664;23.372;2023-07-29T08:09:39;94671.41;;;33.92;27.63
6136;BME280;24008;42.664;23.372;2023-07-29T08:12:07;94595.47;;;33.21;27.73
6136;BME280;24008;42.664;23.372;2023-07-29T08:14:33;94619.91;;;33.74;26.74
6136;BME280;24008;42.664;23.372;2023-07-29T08:17:02;94676.09;;;34.92;26.09
6136;BME280;24008;42.664;23.372;2023-07-29T08:19:29;94679.34;;;35.17;25.38
6136;BME280;24008;42.664;23.372;2023-07-29T08:21:55;94681.53;;;34.87;26.06
6136;BME280;24008;42.664;23.372;2023-07-29T08:24:22;94510.53;;;33.69;26.38
6136;BME280;24008;42.664;23.372;2023-07-29T08:26:49;94679.66;;;35.43;25.84
6136;BME280;24008;42.664;23.372;2023-07-29T08:29:15;94680.75;;;35.91;24.98
6136;BME280;24008;42.664;23.372;2023-07-29T08:31:42;94689.41;;;35.33;25.69
6136;BME280;24008;42.664;23.372;2023-07-29T08:34:10;94665.31;;;34.89;26.54
6136;BME280;24008;42.664;23.372;2023-07-29T08:36:37;94665.31;;;34.89;26.10
6136;BME280;24008;42.664;23.372;2023-07-29T08:39:04;94567.31;;;34.60;25.81
6136;BME280;24008;42.664;23.372;2023-07-29T08:41:35;94668.78;;;35.66;25.21
6136;BME280;24008;42.664;23.372;2023-07-29T08:44:09;94665.16;;;35.62;25.01
6136;BME280;24008;42.664;23.372;2023-07-29T08:46:38;94639.97;;;35.46;26.28
6136;BME280;24008;42.664;23.372;2023-07-29T08:49:06;94644.44;;;35.37;26.61
6136;BME280;24008;42.664;23.372;2023-07-29T08:51:36;94493.19;;;34.77;25.64
6136;BME280;24008;42.664;23.372;2023-07-29T08:54:03;94626.03;;;35.77;25.20
6136;BME280;24008;42.664;23.372;2023-07-29T08:56:30;94588.72;;;35.18;25.19
6136;BME280;24008;42.664;23.372;2023-07-29T08:58:57;94656.66;;;35.38;24.99
6136;BME280;24008;42.664;23.372;2023-07-29T09:01:25;94648.59;;;34.88;24.53
6136;BME280;24008;42.664;23.372;2023-07-29T09:03:52;94594.84;;;34.91;25.35
6136;BME280;24008;42.664;23.372;2023-07-29T09:06:19;94642.22;;;35.53;25.34
6136;BME280;24008;42.664;23.372;2023-07-29T09:08:49;94638.03;;;35.24;24.92
6136;BME280;24008;42.664;23.372;2023-07-29T09:11:17;94641.78;;;34.82;25.77
6136;BME280;24008;42.664;23.372;2023-07-29T09:13:44;94635.94;;;34.66;24.42
6136;BME280;24008;42.664;23.372;2023-07-29T09:16:11;94592.97;;;35.06;25.03
6136;BME280;24008;42.664;23.372;2023-07-29T09:18:38;94642.09;;;35.71;24.19
6136;BME280;24008;42.664;23.372;2023-07-29T09:21:05;94550.16;;;35.07;23.57
6136;BME280;24008;42.664;23.372;2023-07-29T09:23:38;94579.88;;;35.36;23.81
6136;BME280;24008;42.664;23.372;2023-07-29T09:26:08;94494.16;;;34.81;23.98
6136;BME280;24008;42.664;23.372;2023-07-29T09:28:36;94564.94;;;34.72;25.29
6136;BME280;24008;42.664;23.372;2023-07-29T09:31:03;94574.00;;;35.26;23.64
6136;BME280;24008;42.664;23.372;2023-07-29T09:33:33;94619.72;;;35.36;22.69
6136;BME280;24008;42.664;23.372;2023-07-29T09:36:03;94625.50;;;35.38;24.00
6136;BME280;24008;42.664;23.372;2023-07-29T09:38:29;94617.47;;;35.30;22.84
6136;BME280;24008;42.664;23.372;2023-07-29T09:40:57;94627.91;;;35.76;23.40
6136;BME280;24008;42.664;23.372;2023-07-29T09:43:31;94580.56;;;35.87;22.65
6136;BME280;24008;42.664;23.372;2023-07-29T09:46:00;94639.16;;;36.40;22.29
6136;BME280;24008;42.664;23.372;2023-07-29T09:48:28;94615.69;;;36.42;22.80
6136;BME280;24008;42.664;23.372;2023-07-29T09:50:55;94624.31;;;36.78;21.75
6136;BME280;24008;42.664;23.372;2023-07-29T09:53:22;94572.91;;;36.38;22.25
6136;BME280;24008;42.664;23.372;2023-07-29T09:55:49;94423.56;;;35.25;22.11
6136;BME280;24008;42.664;23.372;2023-07-29T09:58:19;94540.66;;;35.87;22.55
6136;BME280;24008;42.664;23.372;2023-07-29T10:00:47;94558.53;;;35.86;23.47
6136;BME280;24008;42.664;23.372;2023-07-29T10:03:14;94507.81;;;35.38;23.70
6136;BME280;24008;42.664;23.372;2023-07-29T10:05:41;94603.69;;;36.22;24.44
6136;BME280;24008;42.664;23.372;2023-07-29T10:08:09;94604.97;;;36.11;22.89
6136;BME280;24008;42.664;23.372;2023-07-29T10:10:37;94554.19;;;35.54;22.27
6136;BME280;24008;42.664;23.372;2023-07-29T10:13:04;94409.25;;;34.13;22.74
6136;BME280;24008;42.664;23.372;2023-07-29T10:15:32;94430.88;;;33.79;24.41
6136;BME280;24008;42.664;23.372;2023-07-29T10:18:01;94355.38;;;33.57;23.65
6136;BME280;24008;42.664;23.372;2023-07-29T10:20:29;94577.41;;;35.26;24.00
6136;BME280;24008;42.664;23.372;2023-07-29T10:22:59;94564.72;;;35.37;23.18
6136;BME280;24008;42.664;23.372;2023-07-29T10:25:33;94586.06;;;35.32;23.66
6136;BME280;24008;42.664;23.372;2023-07-29T10:28:05;94574.16;;;35.88;23.76
6136;BME280;24008;42.664;23.372;2023-07-29T10:30:32;94567.88;;;36.06;23.99
6136;BME280;24008;42.664;23.372;2023-07-29T10:33:03;94564.03;;;36.21;22.57
6136;BME280;24008;42.664;23.372;2023-07-29T10:35:30;94553.56;;;36.24;21.78
6136;BME280;24008;42.664;23.372;2023-07-29T10:37:59;94554.25;;;36.30;22.02
6136;BME280;24008;42.664;23.372;2023-07-29T10:40:26;94493.53;;;35.34;23.15
6136;BME280;24008;42.664;23.372;2023-07-29T10:43:00;94508.50;;;35.52;22.74
6136;BME280;24008;42.664;23.372;2023-07-29T10:45:36;94541.81;;;35.50;23.17
6136;BME280;24008;42.664;23.372;2023-07-29T10:48:09;94549.88;;;35.81;22.03
6136;BME280;24008;42.664;23.372;2023-07-29T10:50:36;94546.00;;;36.18;21.97
6136;BME280;24008;42.664;23.372;2023-07-29T10:53:04;94546.19;;;36.21;22.30
6136;BME280;24008;42.664;23.372;2023-07-29T10:55:32;94537.25;;;36.17;22.62
6136;BME280;24008;42.664;23.372;2023-07-29T10:58:08;94535.72;;;36.56;22.08
6136;BME280;24008;42.664;23.372;2023-07-29T11:00:35;94487.56;;;36.04;22.63
6136;BME280;24008;42.664;23.372;2023-07-29T11:03:05;94451.94;;;35.83;20.96
6136;BME280;24008;42.664;23.372;2023-07-29T11:05:50;94518.06;;;35.76;21.25
6136;BME280;24008;42.664;23.372;2023-07-29T11:08:22;94536.31;;;35.46;21.47
6136;BME280;24008;42.664;23.372;2023-07-29T11:11:01;94531.53;;;34.85;21.75
6136;BME280;24008;42.664;23.372;2023-07-29T11:13:29;94498.75;;;33.75;23.33
6136;BME280;24008;42.664;23.372;2023-07-29T11:15:57;94447.97;;;32.84;22.54
6136;BME280;24008;42.664;23.372;2023-07-29T11:18:27;94473.34;;;32.42;23.53
6136;BME280;24008;42.664;23.372;2023-07-29T11:20:57;94568.94;;;32.36;25.41
6136;BME280;24008;42.664;23.372;2023-07-29T11:23:29;94480.44;;;31.99;26.28
6136;BME280;24008;42.664;23.372;2023-07-29T11:25:56;94515.34;;;32.25;25.35
6136;BME280;24008;42.664;23.372;2023-07-29T11:28:23;94496.06;;;31.96;24.64
6136;BME280;24008;42.664;23.372;2023-07-29T11:30:51;94505.63;;;32.15;25.21
6136;BME280;24008;42.664;23.372;2023-07-29T11:33:19;94451.28;;;31.80;25.20
6136;BME280;24008;42.664;23.372;2023-07-29T11:35:46;94462.66;;;32.05;24.77
6136;BME280;24008;42.664;23.372;2023-07-29T11:38:16;94419.13;;;31.73;24.70
6136;BME280;24008;42.664;23.372;2023-07-29T11:40:53;94486.75;;;32.27;25.82
6136;BME280;24008;42.664;23.372;2023-07-29T11:43:20;94273.81;;;30.63;25.73
6136;BME280;24008;42.664;23.372;2023-07-29T11:45:47;94439.53;;;31.63;27.37
6136;BME280;24008;42.664;23.372;2023-07-29T11:48:15;94452.81;;;31.87;26.18
6136;BME280;24008;42.664;23.372;2023-07-29T11:50:42;94495.84;;;32.21;26.42
6136;BME280;24008;42.664;23.372;2023-07-29T11:53:09;94448.97;;;31.74;26.76
6136;BME280;24008;42.664;23.372;2023-07-29T11:55:39;94386.44;;;31.01;26.35
6136;BME280;24008;42.664;23.372;2023-07-29T11:58:05;94495.94;;;31.82;26.05
6136;BME280;24008;42.664;23.372;2023-07-29T12:00:33;94488.25;;;31.85;26.85
6136;BME280;24008;42.664;23.372;2023-07-29T12:03:00;94488.97;;;31.91;26.89
6136;BME280;24008;42.664;23.372;2023-07-29T12:05:27;94464.66;;;31.89;26.52
6136;BME280;24008;42.664;23.372;2023-07-29T12:07:54;94403.22;;;31.49;25.36
6136;BME280;24008;42.664;23.372;2023-07-29T12:10:21;94393.59;;;31.59;26.26
6136;BME280;24008;42.664;23.372;2023-07-29T12:12:50;94423.06;;;31.76;26.38
6136;BME280;24008;42.664;23.372;2023-07-29T12:15:23;94374.41;;;31.48;26.80
6136;BME280;24008;42.664;23.372;2023-07-29T12:17:53;94483.00;;;32.04;25.37
6136;BME280;24008;42.664;23.372;2023-07-29T12:20:21;94478.19;;;31.88;24.88
6136;BME280;24008;42.664;23.372;2023-07-29T12:22:52;94423.31;;;31.45;24.86
6136;BME280;24008;42.664;23.372;2023-07-29T12:25:19;94467.75;;;31.72;25.06
6136;BME280;24008;42.664;23.372;2023-07-29T12:27:46;94459.03;;;31.72;25.01
6136;BME280;24008;42.664;23.372;2023-07-29T12:30:14;94445.50;;;31.44;24.45
6136;BME280;24008;42.664;23.372;2023-07-29T12:32:45;94462.31;;;31.54;24.51
6136;BME280;24008;42.664;23.372;2023-07-29T12:35:12;94464.94;;;31.64;24.85
6136;BME280;24008;42.664;23.372;2023-07-29T12:37:39;94463.84;;;31.65;25.14
6136;BME280;24008;42.664;23.372;2023-07-29T12:40:20;94453.13;;;31.80;25.02
6136;BME280;24008;42.664;23.372;2023-07-29T12:42:48;94368.97;;;31.39;25.74
6136;BME280;24008;42.664;23.372;2023-07-29T12:45:16;94451.56;;;32.03;25.21
6136;BME280;24008;42.664;23.372;2023-07-29T12:47:44;94457.03;;;32.11;24.57
6136;BME280;24008;42.664;23.372;2023-07-29T12:50:11;94412.97;;;32.02;25.17
6136;BME280;24008;42.664;23.372;2023-07-29T12:52:37;94441.09;;;32.22;24.59
6136;BME280;24008;42.664;23.372;2023-07-29T12:55:05;94463.31;;;32.15;24.89
6136;BME280;24008;42.664;23.372;2023-07-29T12:57:34;94458.53;;;32.23;24.71
6136;BME280;24008;42.664;23.372;2023-07-29T13:00:02;94437.66;;;32.16;25.24
6136;BME280;24008;42.664;23.372;2023-07-29T13:02:31;94408.53;;;31.97;25.39